Time;durP1;ratioP1;P1;durP2;ratioP2;P2;SDS_P1;SDS_P2;PMS_P1;PMS_P2;Temp;Humidity;BMP_temperature;BMP_pressure;BME280_temperature;BME280_humidity;BME280_pressure;Samples;Min_cycle;Max_cycle;Signal;HPM_P1;HPM_P2
2022/12/13 00:01:15;;;;;;;42.17;18.77;;;;;;;-5.24;94.00;100134.88;5003684;28;20506;-71
2022/12/13 00:03:41;;;;;;;40.40;18.87;;;;;;;-5.10;94.08;100122.97;5004970;28;20894;-71
2022/12/13 00:06:10;;;;;;;42.83;19.20;;;;;;;-5.16;93.66;100123.44;4997713;28;20460;-72
2022/12/13 00:08:37;;;;;;;41.47;18.37;;;;;;;-5.25;93.55;100137.34;5006146;28;20455;-71
2022/12/13 00:11:06;;;;;;;26.87;11.27;;;;;;;-5.36;93.91;100131.44;4995070;28;20479;-71
2022/12/13 00:13:33;;;;;;;27.63;10.97;;;;;;;-5.42;93.81;100125.84;5001750;28;20475;-71
2022/12/13 00:16:01;;;;;;;29.37;11.57;;;;;;;-5.49;93.65;100123.59;5001850;28;20448;-71
2022/12/13 00:18:28;;;;;;;28.13;12.03;;;;;;;-5.53;94.02;100127.66;5003515;28;20510;-71
2022/12/13 00:20:55;;;;;;;27.90;11.23;;;;;;;-5.56;94.23;100132.59;5001513;28;20475;-71
2022/12/13 00:23:22;;;;;;;29.53;10.67;;;;;;;-5.62;94.06;100132.13;5006032;28;20547;-71
2022/12/13 00:25:49;;;;;;;31.30;12.10;;;;;;;-5.68;94.28;100119.69;5000419;28;20483;-71
2022/12/13 00:28:16;;;;;;;26.90;11.27;;;;;;;-5.67;94.14;100123.16;4999998;28;20532;-71
2022/12/13 00:30:42;;;;;;;38.50;17.87;;;;;;;-5.68;94.50;100124.84;5005813;28;20472;-71
2022/12/13 00:33:09;;;;;;;38.87;17.77;;;;;;;-5.76;94.35;100117.34;5003102;28;20455;-71
2022/12/13 00:35:40;;;;;;;35.73;17.50;;;;;;;-5.78;94.29;100124.97;5000260;28;20502;-71
2022/12/13 00:38:08;;;;;;;32.10;11.03;;;;;;;-5.72;94.78;100115.09;5004437;28;20494;-70
2022/12/13 00:40:34;;;;;;;27.63;10.53;;;;;;;-5.69;94.55;100111.84;5004197;28;20471;-70
2022/12/13 00:43:01;;;;;;;29.13;11.00;;;;;;;-5.57;94.23;100111.84;5001679;28;20962;-70
2022/12/13 00:45:27;;;;;;;39.73;18.53;;;;;;;-5.59;94.55;100116.91;5002984;28;20574;-71
2022/12/13 00:47:54;;;;;;;38.37;18.23;;;;;;;-5.65;94.42;100106.09;5002290;28;20454;-71
2022/12/13 00:50:20;;;;;;;42.93;17.87;;;;;;;-5.54;94.87;100102.66;5006022;28;20459;-70
2022/12/13 00:52:47;;;;;;;41.57;18.63;;;;;;;-5.27;94.72;100090.78;5003669;28;20542;-70
2022/12/13 00:55:13;;;;;;;40.60;19.50;;;;;;;-5.38;94.50;100094.28;4998073;28;20531;-70
2022/12/13 00:57:40;;;;;;;47.07;19.63;;;;;;;-5.32;94.50;100084.41;4991812;28;20453;-71
2022/12/13 01:00:07;;;;;;;44.23;19.23;;;;;;;-5.11;94.11;100067.84;5004791;28;20460;-71
2022/12/13 01:02:33;;;;;;;42.40;19.13;;;;;;;-4.98;93.49;100074.75;5004521;28;20514;-70
2022/12/13 01:05:00;;;;;;;46.93;19.87;;;;;;;-5.14;93.40;100083.13;5004384;28;20488;-71
2022/12/13 01:07:26;;;;;;;26.27;10.37;;;;;;;-4.98;93.27;100069.59;5005677;28;20455;-70
2022/12/13 01:09:52;;;;;;;25.87;9.90;;;;;;;-4.84;92.91;100071.44;5005293;28;20527;-71
2022/12/13 01:12:19;;;;;;;44.80;19.83;;;;;;;-4.90;93.04;100077.84;5003642;28;20478;-70
2022/12/13 01:14:45;;;;;;;37.93;18.73;;;;;;;-4.96;92.96;100072.28;5005707;28;20443;-71
2022/12/13 01:17:15;;;;;;;26.20;10.27;;;;;;;-5.14;92.95;100083.13;4999446;28;20472;-72
2022/12/13 01:19:42;;;;;;;41.60;20.30;;;;;;;-5.31;93.09;100088.78;5004904;28;20825;-71
2022/12/13 01:22:10;;;;;;;28.80;10.73;;;;;;;-5.26;93.71;100094.25;5006174;28;20506;-71
2022/12/13 01:24:37;;;;;;;29.17;10.90;;;;;;;-5.22;93.28;100088.53;5005431;28;20466;-70
2022/12/13 01:27:03;;;;;;;27.90;9.90;;;;;;;-5.07;92.98;100079.28;4998933;28;20682;-71
2022/12/13 01:29:30;;;;;;;25.13;10.50;;;;;;;-5.11;93.11;100083.34;5006458;28;20451;-71
2022/12/13 01:31:56;;;;;;;38.77;18.67;;;;;;;-4.97;92.89;100096.31;5001077;28;20475;-70
2022/12/13 01:34:23;;;;;;;36.67;16.97;;;;;;;-5.07;93.02;100098.25;5003304;28;20551;-71
2022/12/13 01:36:53;;;;;;;40.53;18.77;;;;;;;-5.00;92.93;100089.25;5004689;28;20538;-70
2022/12/13 01:39:24;;;;;;;38.90;18.03;;;;;;;-4.99;92.56;100077.22;5003009;28;20538;-70
2022/12/13 01:42:02;;;;;;;26.07;11.00;;;;;;;-4.97;92.49;100092.03;5002130;28;21001;-70
2022/12/13 01:44:53;;;;;;;28.03;10.93;;;;;;;-5.08;92.48;100091.31;5004789;28;20521;-71
2022/12/13 01:47:42;;;;;;;26.20;10.53;;;;;;;-5.11;92.55;100088.50;4999438;28;20547;-71
2022/12/13 01:50:14;;;;;;;20.43;8.27;;;;;;;-5.11;92.77;100080.75;5003842;28;20550;-71
2022/12/13 01:52:41;;;;;;;39.33;18.00;;;;;;;-5.14;93.10;100082.25;5004807;28;20888;-70
2022/12/13 01:55:09;;;;;;;27.27;11.37;;;;;;;-5.23;92.76;100084.16;5007781;28;20539;-71
2022/12/13 01:57:38;;;;;;;24.73;9.40;;;;;;;-5.37;93.09;100094.41;5004844;28;20475;-70
2022/12/13 02:00:11;;;;;;;29.20;10.50;;;;;;;-5.44;92.91;100086.13;5006056;28;21031;-71
2022/12/13 02:02:38;;;;;;;28.50;10.70;;;;;;;-5.63;93.41;100088.16;5006859;28;20578;-70
2022/12/13 02:05:22;;;;;;;20.47;10.07;;;;;;;-5.78;93.03;100098.28;5005500;28;20569;-70
2022/12/13 02:07:49;;;;;;;24.47;10.03;;;;;;;-5.80;93.76;100097.28;5006355;28;20513;-70
2022/12/13 02:10:16;;;;;;;32.57;10.93;;;;;;;-5.69;93.85;100094.69;5006881;28;20482;-71
2022/12/13 02:12:45;;;;;;;38.53;17.60;;;;;;;-5.65;93.85;100087.16;5005769;28;20555;-70
2022/12/13 02:15:16;;;;;;;37.10;17.57;;;;;;;-5.73;93.72;100077.19;5010461;28;20477;-71
2022/12/13 02:18:17;;;;;;;21.77;9.10;;;;;;;-5.78;93.86;100093.13;5015963;28;20667;-71
2022/12/13 02:21:14;;;;;;;22.87;8.80;;;;;;;-5.84;93.79;100087.53;5013718;28;20560;-71
2022/12/13 02:24:14;;;;;;;32.07;9.53;;;;;;;-5.74;93.97;100077.97;5006480;28;20456;-71
2022/12/13 02:27:10;;;;;;;25.07;9.57;;;;;;;-5.83;93.64;100071.28;5008157;28;20454;-71
2022/12/13 02:29:58;;;;;;;21.90;9.30;;;;;;;-5.90;93.61;100074.22;5004629;28;20510;-70
2022/12/13 02:32:30;;;;;;;25.97;9.33;;;;;;;-5.87;94.19;100080.47;5005654;28;21097;-72
2022/12/13 02:35:47;;;;;;;33.40;16.27;;;;;;;-5.65;94.05;100080.31;5006608;28;21032;-70
2022/12/13 02:38:39;;;;;;;30.63;14.70;;;;;;;-5.63;93.88;100083.00;4971736;28;20505;-71
2022/12/13 02:41:14;;;;;;;35.53;15.93;;;;;;;-5.66;93.36;100083.69;5001229;28;20705;-70
2022/12/13 02:43:53;;;;;;;29.77;15.00;;;;;;;-5.91;93.29;100070.75;5007125;28;20516;-70
2022/12/13 02:46:30;;;;;;;27.73;10.30;;;;;;;-5.97;93.18;100078.06;5003887;28;20957;-71
2022/12/13 02:48:59;;;;;;;33.63;16.23;;;;;;;-6.09;93.29;100082.28;5005406;28;20486;-70
2022/12/13 02:51:27;;;;;;;21.10;9.87;;;;;;;-6.10;93.50;100081.38;5004649;28;20471;-71
2022/12/13 02:53:53;;;;;;;33.40;16.03;;;;;;;-6.23;93.79;100059.78;5006700;28;20447;-70
2022/12/13 02:56:20;;;;;;;31.80;14.83;;;;;;;-6.20;93.75;100068.63;5004502;28;20451;-70
2022/12/13 02:58:49;;;;;;;32.90;15.73;;;;;;;-6.24;93.84;100070.88;5003174;28;20584;-70
2022/12/13 03:01:28;;;;;;;21.43;9.57;;;;;;;-6.26;93.91;100067.28;5001591;28;20562;-70
2022/12/13 03:04:14;;;;;;;25.50;9.63;;;;;;;-6.22;94.19;100059.88;5002650;28;20457;-70
2022/12/13 03:07:14;;;;;;;24.00;9.63;;;;;;;-6.21;94.06;100058.19;4996054;28;20547;-70
2022/12/13 03:10:08;;;;;;;22.70;8.87;;;;;;;-6.29;93.73;100067.94;5005147;28;20478;-71
2022/12/13 03:15:44;;;;;;;32.63;14.93;;;;;;;-6.51;93.90;100065.44;4999338;28;20517;-71
2022/12/13 03:18:18;;;;;;;30.20;14.43;;;;;;;-6.50;94.13;100068.91;5004878;28;20474;-71
2022/12/13 03:20:47;;;;;;;32.67;15.60;;;;;;;-6.57;94.04;100057.25;4999397;28;21049;-70
2022/12/13 03:23:14;;;;;;;33.60;15.00;;;;;;;-6.57;94.52;100051.22;5006312;28;20891;-70
2022/12/13 03:25:41;;;;;;;26.73;9.20;;;;;;;-6.51;94.46;100061.97;5002024;28;20543;-70
2022/12/13 03:28:07;;;;;;;34.07;15.47;;;;;;;-6.50;94.24;100058.59;5000975;28;21003;-70
2022/12/13 03:30:33;;;;;;;23.97;9.43;;;;;;;-6.44;94.59;100062.53;5005080;28;20551;-70
2022/12/13 03:33:00;;;;;;;22.07;8.37;;;;;;;-6.29;94.52;100064.47;5005421;28;20455;-70
2022/12/13 03:35:28;;;;;;;25.10;9.00;;;;;;;-6.33;94.26;100063.34;4996803;28;20553;-70
2022/12/13 03:38:12;;;;;;;22.73;9.20;;;;;;;-6.37;94.07;100062.22;5003708;28;20538;-70
2022/12/13 03:40:48;;;;;;;30.97;14.53;;;;;;;-6.44;93.96;100062.53;5002558;28;20578;-70
2022/12/13 03:43:15;;;;;;;33.10;15.60;;;;;;;-6.46;94.29;100046.06;4997348;28;20536;-70
2022/12/13 03:45:47;;;;;;;23.73;8.67;;;;;;;-6.38;93.98;100065.59;5002456;28;21076;-70
2022/12/13 03:48:14;;;;;;;24.33;9.27;;;;;;;-6.47;94.25;100052.00;4997916;28;20543;-71
2022/12/13 03:50:50;;;;;;;20.63;8.70;;;;;;;-6.37;94.46;100062.22;5001156;28;20472;-70
2022/12/13 03:53:17;;;;;;;18.13;8.80;;;;;;;-6.42;94.03;100065.22;4998202;28;20954;-70
2022/12/13 03:55:59;;;;;;;23.57;9.10;;;;;;;-6.56;93.97;100056.47;4999340;28;21165;-70
2022/12/13 03:58:26;;;;;;;19.77;8.13;;;;;;;-6.59;94.17;100061.41;5005536;28;20985;-70
2022/12/13 04:01:07;;;;;;;25.57;8.53;;;;;;;-6.63;94.18;100065.44;4997317;28;20874;-70
2022/12/13 04:03:34;;;;;;;20.10;7.70;;;;;;;-6.71;93.96;100055.34;5004894;28;20966;-70
2022/12/13 04:06:01;;;;;;;29.23;9.40;;;;;;;-6.78;93.47;100053.97;4997839;28;20997;-70
2022/12/13 04:08:27;;;;;;;19.83;8.60;;;;;;;-6.72;92.63;100061.28;5004715;28;20482;-70
2022/12/13 14:25:09;;;;;;;14.17;6.67;;;;;;;-1.28;66.61;99910.00;5060044;23;20232;-67
2022/12/13 14:28:07;;;;;;;17.13;7.67;;;;;;;-1.40;67.71;99917.16;5068706;28;20284;-67
2022/12/13 14:30:40;;;;;;;18.20;7.93;;;;;;;-1.47;68.43;99897.78;5056109;28;20292;-67
2022/12/13 14:33:19;;;;;;;18.80;8.43;;;;;;;-1.49;68.23;99901.09;5045527;28;20703;-68
2022/12/13 14:35:51;;;;;;;23.27;9.43;;;;;;;-1.49;68.41;99893.31;5044847;28;20276;-67
2022/12/13 14:38:29;;;;;;;21.70;8.47;;;;;;;-1.48;68.13;99900.28;5050487;28;20222;-67
2022/12/13 14:41:00;;;;;;;20.80;8.17;;;;;;;-1.63;68.71;99890.84;5048388;28;20234;-66
2022/12/13 14:43:29;;;;;;;15.37;6.37;;;;;;;-1.58;68.82;99902.41;5045846;28;20205;-66
2022/12/13 14:45:57;;;;;;;19.87;8.00;;;;;;;-1.64;69.31;99901.16;5045321;28;20661;-67
2022/12/13 14:48:25;;;;;;;22.43;9.67;;;;;;;-1.73;69.62;99904.16;5047032;28;20234;-68
2022/12/13 14:50:55;;;;;;;17.23;8.20;;;;;;;-1.88;70.48;99905.06;5036086;28;20199;-68
2022/12/13 14:53:36;;;;;;;18.47;7.77;;;;;;;-1.89;nan;99893.78;5034144;28;20203;-67
2022/12/13 14:56:09;;;;;;;18.43;7.93;;;;;;;-1.97;70.89;99895.06;5032109;28;20202;-67
2022/12/13 14:58:37;;;;;;;20.80;8.90;;;;;;;-1.98;71.31;99899.38;5046138;28;20202;-68
2022/12/13 15:01:28;;;;;;;16.80;7.10;;;;;;;-1.96;71.07;99894.25;5040411;28;20278;-67
2022/12/13 15:04:16;;;;;;;19.30;8.83;;;;;;;-2.08;71.91;99891.88;5054497;28;20206;-67
2022/12/13 15:06:43;;;;;;;19.43;8.40;;;;;;;-2.15;71.92;99881.97;5043287;28;20309;-67
2022/12/13 15:09:15;;;;;;;17.73;7.47;;;;;;;-2.22;72.17;99885.94;5029264;28;20307;-67
2022/12/13 15:11:43;;;;;;;18.23;8.80;;;;;;;-2.18;72.14;99883.50;5034018;28;20225;-67
2022/12/13 15:14:19;;;;;;;18.00;8.07;;;;;;;-2.20;72.27;99883.41;5027862;28;20246;-66
2022/12/13 15:16:48;;;;;;;18.47;8.40;;;;;;;-2.16;72.34;99884.47;5042984;28;20293;-67
2022/12/13 15:19:21;;;;;;;19.47;8.87;;;;;;;-2.24;72.62;99877.16;5050183;28;20205;-67
2022/12/13 15:21:59;;;;;;;19.03;8.37;;;;;;;-2.24;72.52;99873.69;5052115;28;20223;-68
2022/12/13 15:24:31;;;;;;;17.17;8.43;;;;;;;-2.29;72.60;99859.56;5046877;28;20626;-68
2022/12/13 15:26:59;;;;;;;16.20;7.37;;;;;;;-2.39;73.08;99858.19;5045135;28;20312;-68
2022/12/13 15:29:29;;;;;;;17.93;7.97;;;;;;;-2.38;73.25;99859.06;5053313;28;20522;-68
2022/12/13 15:31:57;;;;;;;19.07;7.80;;;;;;;-2.38;73.23;99853.88;5057527;28;20644;-68
2022/12/13 15:34:26;;;;;;;15.63;7.47;;;;;;;-2.42;73.50;99851.91;5051785;28;20195;-68
2022/12/13 15:37:04;;;;;;;17.73;7.30;;;;;;;-2.41;73.82;99853.69;5045275;28;20199;-67
2022/12/13 15:39:36;;;;;;;15.67;7.67;;;;;;;-2.54;74.14;99850.41;5058177;28;20221;-68
2022/12/13 15:42:03;;;;;;;15.70;7.90;;;;;;;-2.46;73.74;99832.69;5028987;28;20682;-68
2022/12/13 15:44:37;;;;;;;17.17;7.77;;;;;;;-2.55;74.18;99840.84;5030259;28;20770;-68
2022/12/13 15:47:10;;;;;;;18.60;7.63;;;;;;;-2.51;74.11;99834.13;5041433;28;20258;-68
2022/12/13 15:49:40;;;;;;;14.97;6.57;;;;;;;-2.43;74.22;99838.03;5048292;28;20286;-68
2022/12/13 15:52:27;;;;;;;17.30;8.27;;;;;;;-2.51;74.27;99836.72;5036980;28;20549;-68
2022/12/13 15:55:00;;;;;;;17.20;7.33;;;;;;;-2.58;74.62;99827.72;5029758;28;20225;-68
2022/12/13 15:57:30;;;;;;;17.33;7.03;;;;;;;-2.68;74.75;99827.13;5053452;28;20732;-68
2022/12/13 16:00:20;;;;;;;19.37;8.20;;;;;;;-2.69;75.11;99825.34;5051975;28;20859;-68
2022/12/13 16:03:04;;;;;;;21.03;10.63;;;;;;;-2.62;74.97;99823.19;5042617;28;20526;-67
2022/12/13 16:05:39;;;;;;;16.33;7.17;;;;;;;-2.60;74.80;99825.84;5039895;28;20599;-69
2022/12/13 16:08:07;;;;;;;22.37;9.03;;;;;;;-2.71;75.24;99801.06;5043938;28;20960;-69
2022/12/13 16:10:45;;;;;;;20.33;8.40;;;;;;;-2.64;74.88;99813.53;5048748;28;20448;-69
2022/12/13 16:13:22;;;;;;;20.57;9.60;;;;;;;-2.78;75.34;99802.41;5050963;28;20238;-68
2022/12/13 16:16:16;;;;;;;20.20;8.40;;;;;;;-2.84;75.58;99804.63;5052115;28;20607;-68
2022/12/13 16:18:54;;;;;;;15.20;6.13;;;;;;;-2.87;76.10;99800.16;5043278;28;20503;-68
2022/12/13 16:21:20;;;;;;;19.37;10.27;;;;;;;-2.88;76.17;99797.50;5046124;28;20480;-68
2022/12/13 16:23:46;;;;;;;27.70;11.03;;;;;;;-2.94;76.06;99803.22;5047795;28;20484;-68
2022/12/13 16:26:21;;;;;;;21.40;8.87;;;;;;;-2.97;76.47;99802.16;5048320;28;20473;-68
2022/12/13 16:28:47;;;;;;;27.30;11.27;;;;;;;-3.04;76.87;99808.69;5048028;28;20487;-68
2022/12/13 16:31:22;;;;;;;18.87;9.30;;;;;;;-3.12;77.37;99816.84;5043982;28;20477;-68
2022/12/13 16:33:48;;;;;;;16.10;8.43;;;;;;;-3.22;77.93;99813.69;5048830;28;20550;-68
2022/12/13 16:36:15;;;;;;;20.40;8.27;;;;;;;-3.20;77.68;99806.03;5050154;28;20473;-68
2022/12/13 16:38:42;;;;;;;17.17;7.83;;;;;;;-3.26;78.14;99808.25;5047241;28;20465;-69
2022/12/13 16:41:09;;;;;;;16.60;7.97;;;;;;;-3.23;78.06;99806.72;5049587;28;20507;-68
2022/12/13 16:43:39;;;;;;;19.83;8.43;;;;;;;-3.26;77.98;99796.19;5048821;28;20896;-68
2022/12/13 16:46:06;;;;;;;16.97;7.00;;;;;;;-3.14;77.69;99808.09;5047700;28;21009;-69
2022/12/13 16:48:53;;;;;;;19.50;9.80;;;;;;;-3.25;78.09;99812.63;5049496;28;20785;-68
2022/12/13 16:51:20;;;;;;;17.13;7.80;;;;;;;-3.26;78.40;99818.59;5049323;28;20504;-67
2022/12/13 16:53:47;;;;;;;22.00;8.10;;;;;;;-3.37;78.56;99809.31;5046369;28;20552;-68
2022/12/13 16:56:15;;;;;;;16.67;6.87;;;;;;;-3.39;78.95;99804.06;5046420;28;20194;-69
2022/12/13 16:58:42;;;;;;;16.80;7.13;;;;;;;-3.46;78.83;99799.31;5044013;28;20445;-69
2022/12/13 17:01:18;;;;;;;18.70;7.90;;;;;;;-3.59;78.70;99807.19;5046582;28;20564;-68
2022/12/13 17:03:45;;;;;;;15.17;6.37;;;;;;;-3.55;79.59;99798.78;5046304;28;20807;-69
2022/12/13 17:06:15;;;;;;;20.40;6.27;;;;;;;-3.44;78.75;99794.25;5049244;28;20481;-69
2022/12/13 17:08:41;;;;;;;17.43;6.93;;;;;;;-3.40;78.95;99783.25;5031385;28;20461;-69
2022/12/13 17:11:08;;;;;;;15.23;6.40;;;;;;;-3.50;78.85;99768.91;5047545;28;20477;-69
2022/12/13 17:13:43;;;;;;;19.17;7.27;;;;;;;-3.55;78.88;99773.81;5033322;28;20456;-68
2022/12/13 17:16:10;;;;;;;14.93;7.17;;;;;;;-3.43;78.48;99772.72;5028916;28;20448;-69
2022/12/13 17:18:36;;;;;;;23.80;10.13;;;;;;;-3.45;78.32;99784.69;5053108;28;20494;-68
2022/12/13 17:21:07;;;;;;;16.63;7.20;;;;;;;-3.38;78.35;99790.31;5035977;28;20516;-69
2022/12/13 17:23:33;;;;;;;23.13;6.60;;;;;;;-3.36;78.03;99795.56;5038805;28;20531;-68
2022/12/13 17:26:08;;;;;;;15.87;7.20;;;;;;;-3.31;77.62;99802.81;5051653;28;21087;-68
2022/12/13 17:28:34;;;;;;;19.90;10.17;;;;;;;-3.27;77.85;99793.50;5048242;28;20595;-69
2022/12/13 17:31:06;;;;;;;14.03;6.20;;;;;;;-3.09;76.81;99772.97;5050085;28;20541;-69
2022/12/13 17:33:32;;;;;;;20.53;9.50;;;;;;;-3.09;76.59;99760.94;5056666;28;20453;-68
2022/12/13 17:36:06;;;;;;;13.10;6.63;;;;;;;-3.01;76.34;99771.72;5057406;28;20440;-68
2022/12/13 17:38:33;;;;;;;15.03;6.50;;;;;;;-3.03;76.32;99766.44;5061697;28;20436;-69
2022/12/13 17:40:59;;;;;;;18.53;6.37;;;;;;;-3.02;75.63;99754.41;5049377;28;20459;-69
2022/12/13 17:43:27;;;;;;;19.10;9.70;;;;;;;-2.96;75.89;99765.09;5054223;28;20566;-68
2022/12/13 17:46:02;;;;;;;12.27;5.50;;;;;;;-2.96;75.92;99773.75;5046202;28;20484;-69
2022/12/13 17:48:30;;;;;;;14.17;5.27;;;;;;;-2.98;75.97;99771.88;5054200;28;20446;-68
2022/12/13 17:51:07;;;;;;;14.73;6.77;;;;;;;-3.07;76.35;99774.84;5052423;28;20845;-68
2022/12/13 17:53:33;;;;;;;15.97;6.13;;;;;;;-3.08;76.57;99775.66;5059638;28;20524;-68
2022/12/13 17:56:03;;;;;;;16.33;7.43;;;;;;;-3.12;76.65;99775.41;5056855;28;20515;-67
2022/12/13 17:58:31;;;;;;;14.03;5.77;;;;;;;-3.05;76.21;99770.66;5051005;28;20870;-68
2022/12/13 18:00:58;;;;;;;16.47;6.37;;;;;;;-3.10;76.37;99758.25;5050611;28;20486;-68
2022/12/13 18:03:24;;;;;;;12.77;5.77;;;;;;;-3.06;76.53;99770.56;5051091;28;20544;-68
2022/12/13 18:05:58;;;;;;;12.53;6.10;;;;;;;-3.17;76.72;99757.00;5029863;28;20456;-68
2022/12/13 18:08:25;;;;;;;16.30;6.77;;;;;;;-3.26;76.73;99751.28;5040160;28;21015;-68
2022/12/13 18:10:56;;;;;;;14.33;6.30;;;;;;;-3.26;76.91;99759.06;5050867;28;20449;-68
2022/12/13 18:13:43;;;;;;;16.17;5.80;;;;;;;-3.34;77.04;99760.31;5059260;28;20437;-68
2022/12/13 18:16:12;;;;;;;15.23;6.47;;;;;;;-3.26;77.03;99753.88;5054421;28;20532;-68
2022/12/13 18:18:38;;;;;;;10.63;4.07;;;;;;;-3.23;76.84;99747.16;5048935;28;20453;-68
2022/12/13 18:21:10;;;;;;;15.30;6.47;;;;;;;-3.29;76.91;99743.34;5056286;28;22854;-68
2022/12/13 18:23:37;;;;;;;13.63;6.40;;;;;;;-3.24;76.70;99747.97;5059105;28;20444;-68
2022/12/13 18:26:06;;;;;;;16.27;6.43;;;;;;;-3.24;76.77;99742.81;5054899;28;20489;-68
2022/12/13 18:28:32;;;;;;;19.60;9.77;;;;;;;-3.33;76.81;99723.28;5054948;28;20490;-68
2022/12/13 18:31:04;;;;;;;15.73;6.67;;;;;;;-3.33;76.80;99739.69;5046675;28;20496;-69
2022/12/13 18:33:31;;;;;;;5.67;3.37;;;;;;;-3.35;76.98;99749.06;5058589;28;20861;-68
2022/12/13 18:35:57;;;;;;;19.80;9.77;;;;;;;-3.45;77.40;99754.53;5035262;28;20539;-68
2022/12/13 18:38:25;;;;;;;14.97;5.90;;;;;;;-3.38;77.04;99760.94;5056926;28;20519;-69
2022/12/13 18:41:17;;;;;;;9.93;6.10;;;;;;;-3.44;77.40;99761.50;5055928;28;20861;-68
2022/12/13 18:43:44;;;;;;;14.87;5.33;;;;;;;-3.31;76.68;99748.44;5045946;28;20456;-68
2022/12/13 18:46:12;;;;;;;11.33;6.10;;;;;;;-3.26;76.47;99752.19;5049468;28;21072;-68
2022/12/13 18:48:39;;;;;;;12.07;5.90;;;;;;;-3.26;76.05;99739.22;5058272;28;20436;-68
2022/12/13 18:51:07;;;;;;;14.00;6.27;;;;;;;-3.26;76.19;99751.28;5055294;28;20516;-68
2022/12/13 18:53:34;;;;;;;15.83;5.73;;;;;;;-3.26;76.18;99756.47;5056469;28;20479;-68
2022/12/13 18:56:12;;;;;;;20.30;9.30;;;;;;;-3.33;76.21;99731.94;5055303;28;20451;-68
2022/12/13 18:58:45;;;;;;;19.63;9.30;;;;;;;-3.42;76.44;99734.00;5048699;28;20477;-68
2022/12/13 19:01:12;;;;;;;12.87;6.50;;;;;;;-3.44;76.52;99730.44;5047854;28;20473;-69
2022/12/13 19:03:42;;;;;;;17.73;9.00;;;;;;;-3.36;76.08;99741.22;5044339;28;20453;-68
2022/12/13 19:06:14;;;;;;;17.10;8.77;;;;;;;-3.48;76.44;99742.31;5045965;28;20477;-68
2022/12/13 19:08:40;;;;;;;14.37;5.87;;;;;;;-3.59;77.10;99739.91;5051660;28;20437;-68
2022/12/13 19:11:07;;;;;;;15.13;6.40;;;;;;;-3.65;76.95;99718.81;5033335;28;20559;-68
2022/12/13 19:13:33;;;;;;;13.13;6.23;;;;;;;-3.62;77.45;99753.53;5052481;28;20496;-68
2022/12/13 19:16:08;;;;;;;13.43;6.27;;;;;;;-3.76;77.75;99732.81;5052463;28;20444;-69
2022/12/13 19:18:35;;;;;;;12.47;5.97;;;;;;;-3.59;77.18;99751.16;5050387;28;20453;-68
2022/12/13 19:21:05;;;;;;;18.60;6.23;;;;;;;-3.60;76.06;99715.72;5044677;28;20940;-69
2022/12/13 19:23:32;;;;;;;12.53;5.43;;;;;;;-3.37;75.76;99731.66;5053977;28;20456;-68
2022/12/13 19:26:06;;;;;;;13.30;5.90;;;;;;;-3.41;76.10;99721.94;5052612;28;20528;-68
2022/12/13 19:28:33;;;;;;;9.57;4.93;;;;;;;-3.28;75.19;99722.72;5051666;28;20468;-68
2022/12/13 19:31:05;;;;;;;9.03;4.67;;;;;;;-3.20;74.08;99707.66;5038983;28;20518;-68
2022/12/13 19:33:33;;;;;;;11.17;5.13;;;;;;;-3.27;74.46;99710.66;5045435;28;20443;-68
2022/12/13 19:36:00;;;;;;;13.47;5.93;;;;;;;-3.22;74.26;99720.47;5052006;28;20481;-68
2022/12/13 19:38:27;;;;;;;11.80;4.97;;;;;;;-3.17;74.03;99703.53;5051803;28;21005;-68
2022/12/13 19:40:53;;;;;;;10.23;4.87;;;;;;;-3.19;74.30;99705.16;5054734;28;20439;-69
2022/12/13 19:43:20;;;;;;;12.67;5.33;;;;;;;-3.26;74.23;99694.34;5053708;28;20445;-68
2022/12/13 19:45:47;;;;;;;15.47;5.30;;;;;;;-3.09;73.23;99703.94;5049175;28;20544;-68
2022/12/13 19:48:14;;;;;;;9.53;4.43;;;;;;;-3.06;72.84;99698.94;5047450;28;20584;-68
2022/12/13 19:50:41;;;;;;;8.47;4.80;;;;;;;-3.03;72.16;99699.13;5053776;28;20441;-68
2022/12/13 19:53:07;;;;;;;11.43;5.43;;;;;;;-3.03;72.76;99693.03;5049943;28;20565;-68
2022/12/13 19:55:34;;;;;;;11.30;4.27;;;;;;;-2.99;72.86;99684.63;5035198;28;20504;-68
2022/12/13 19:58:00;;;;;;;10.33;5.00;;;;;;;-3.07;72.96;99675.56;5048467;28;20445;-68
2022/12/13 20:00:27;;;;;;;7.00;4.00;;;;;;;-3.05;72.68;99668.75;5049217;28;20453;-68
2022/12/13 20:02:54;;;;;;;9.93;3.83;;;;;;;-3.07;72.59;99672.97;5046793;28;20918;-68
2022/12/13 20:05:20;;;;;;;7.77;3.90;;;;;;;-3.04;72.62;99673.13;5047687;28;20459;-68
2022/12/13 20:07:47;;;;;;;10.97;5.47;;;;;;;-3.08;72.50;99659.13;5036749;28;20472;-68
2022/12/13 20:10:13;;;;;;;15.23;4.80;;;;;;;-3.12;72.63;99670.13;5047336;28;20762;-69
2022/12/13 20:12:40;;;;;;;9.83;4.60;;;;;;;-3.25;72.92;99650.41;5050473;28;20548;-68
2022/12/13 20:15:07;;;;;;;7.90;3.67;;;;;;;-3.23;73.17;99671.19;5047925;28;20557;-68
2022/12/13 20:17:34;;;;;;;11.17;5.27;;;;;;;-3.35;73.65;99660.16;5050681;28;20443;-69
2022/12/13 20:20:01;;;;;;;10.70;4.13;;;;;;;-3.22;73.33;99668.69;5046667;28;20475;-68
2022/12/13 20:22:28;;;;;;;12.43;5.40;;;;;;;-3.26;73.43;99666.75;5042705;28;20522;-68
2022/12/13 20:24:54;;;;;;;9.30;4.87;;;;;;;-3.25;73.49;99665.94;5052923;28;20472;-68
2022/12/13 20:27:20;;;;;;;13.60;7.87;;;;;;;-3.31;73.86;99667.31;5044282;28;20987;-68
2022/12/13 20:29:47;;;;;;;12.57;5.07;;;;;;;-3.27;73.40;99656.31;5048925;28;20464;-68
2022/12/13 20:32:14;;;;;;;9.27;4.67;;;;;;;-3.19;73.11;99658.53;5051755;28;20983;-68
2022/12/13 20:34:41;;;;;;;14.80;8.30;;;;;;;-3.17;73.15;99659.50;5049091;28;20445;-69
2022/12/13 20:37:07;;;;;;;10.27;4.63;;;;;;;-3.17;73.10;99645.69;5044833;28;20960;-69
2022/12/13 20:39:33;;;;;;;10.77;4.17;;;;;;;-3.10;72.67;99631.38;5047202;28;20536;-69
2022/12/13 20:42:00;;;;;;;11.87;4.80;;;;;;;-3.09;72.87;99639.22;5048501;28;20461;-69
2022/12/13 20:44:26;;;;;;;8.90;4.57;;;;;;;-3.02;72.62;99630.06;5043058;28;20450;-68
2022/12/13 20:46:53;;;;;;;13.17;5.47;;;;;;;-3.01;72.78;99643.09;5046018;28;20565;-68
2022/12/13 20:49:19;;;;;;;11.80;5.17;;;;;;;-2.99;72.95;99641.50;5048608;28;20980;-69
2022/12/13 20:51:45;;;;;;;15.50;7.73;;;;;;;-2.95;72.22;99633.06;5048463;28;20509;-69
2022/12/13 20:54:12;;;;;;;9.80;4.37;;;;;;;-2.96;72.82;99644.25;5044669;28;20515;-69
2022/12/13 20:56:38;;;;;;;10.30;4.23;;;;;;;-2.92;72.30;99633.25;5049850;28;20437;-68
2022/12/13 20:59:07;;;;;;;12.93;5.97;;;;;;;-2.95;72.32;99627.91;5045939;28;20484;-69
2022/12/13 21:01:37;;;;;;;10.60;5.00;;;;;;;-2.90;72.35;99631.63;5043577;28;21001;-69
2022/12/13 21:04:05;;;;;;;13.03;6.73;;;;;;;-2.78;71.63;99623.63;5049964;28;20472;-68
2022/12/13 21:06:39;;;;;;;10.73;4.57;;;;;;;-2.80;71.60;99626.94;5053448;28;20800;-68
2022/12/13 21:09:07;;;;;;;9.43;4.93;;;;;;;-2.77;71.84;99627.13;5046763;28;20540;-68
2022/12/13 21:11:38;;;;;;;9.73;4.60;;;;;;;-2.83;71.93;99636.31;5056324;28;20502;-68
2022/12/13 21:14:20;;;;;;;13.13;5.47;;;;;;;-2.82;72.03;99626.84;5050640;28;20526;-69
2022/12/13 21:16:53;;;;;;;15.57;7.53;;;;;;;-2.87;71.56;99616.25;5045220;28;20444;-69
2022/12/13 21:19:27;;;;;;;12.00;4.37;;;;;;;-2.73;71.30;99622.19;5053758;28;20918;-69
2022/12/13 21:21:59;;;;;;;12.40;5.10;;;;;;;-2.84;71.31;99589.59;5054700;28;20990;-68
2022/12/13 21:24:28;;;;;;;9.50;4.70;;;;;;;-2.72;70.99;99595.47;5053854;28;20453;-69
2022/12/13 21:26:55;;;;;;;14.87;7.20;;;;;;;-2.74;71.29;99583.25;5049258;28;20484;-68
2022/12/13 21:29:21;;;;;;;10.97;5.03;;;;;;;-2.69;70.61;99589.53;5043228;28;20472;-69
2022/12/13 21:31:54;;;;;;;11.77;5.17;;;;;;;-2.72;70.73;99587.69;5036917;28;20471;-69
2022/12/13 21:34:21;;;;;;;12.27;4.87;;;;;;;-2.69;71.08;99586.94;5055796;28;20817;-69
2022/12/13 21:36:53;;;;;;;6.90;3.80;;;;;;;-2.66;70.64;99577.63;5050584;28;21945;-69
2022/12/13 21:39:26;;;;;;;15.03;7.17;;;;;;;-2.72;71.36;99582.50;5051995;28;20914;-69
2022/12/13 21:41:53;;;;;;;11.33;5.33;;;;;;;-2.78;71.26;99570.94;5053885;28;20527;-69
2022/12/13 21:44:20;;;;;;;10.53;5.77;;;;;;;-2.88;71.47;99557.47;5053110;28;20448;-69
2022/12/13 21:46:48;;;;;;;9.13;4.70;;;;;;;-2.87;71.81;99554.06;5055187;28;20933;-69
2022/12/13 21:49:34;;;;;;;13.10;5.17;;;;;;;-2.89;71.77;99537.56;5051783;28;20449;-69
2022/12/13 21:52:01;;;;;;;10.73;4.73;;;;;;;-2.73;70.92;99522.84;5044934;28;21086;-68
2022/12/13 21:54:27;;;;;;;10.40;4.80;;;;;;;-2.69;70.66;99517.00;5052192;28;20477;-68
2022/12/13 21:59:38;;;;;;;8.60;4.40;;;;;;;-2.65;70.56;99517.22;5039955;28;20533;-69